^^
Station Historical Data
Daily Summary for June 28, 2021 Units:  English    Metric   Both
Daily Weekly Monthly Yearly
  High: Low: Average:
Temperature: 75.5 °F 66.2 °F 71.3 °F
Dew Point: 70.8 °F 61.9 °F 65.8 °F
Humidity: 87% 75% 83%
Wind Speed: 5mph 0mph 2.3mph
Wind Gust: 10mph - -
Wind- - South
Pressure: 30.13 in 29.94 in -
Precipitation: 0.00 in    
 
 
Tabular Data for June 28, 2021
Time Temperature Dew Point Pressure Wind Wind Speed Wind Gust Humidity Rainfall Rate (Hourly) solar
00:00 73.2 °F 67.7 °F 29.94 in SE 2 mph 2 mph 83% 0.00 in 0 W/m2
00:05 73.1 °F 68 °F 29.94 in West 2 mph 2 mph 84% 0.00 in 0 W/m2
00:10 73 °F 67.9 °F 29.95 in WNW 2 mph 2 mph 84% 0.00 in 0 W/m2
00:15 73 °F 68.2 °F 29.95 in SW 2 mph 2 mph 85% 0.00 in 0 W/m2
00:20 73 °F 68.2 °F 29.95 in West 2 mph 4 mph 85% 0.00 in 0 W/m2
00:25 72.9 °F 68.5 °F 29.95 in WSW 2 mph 4 mph 86% 0.00 in 0 W/m2
00:30 72.8 °F 68.7 °F 29.95 in SSW 2 mph 4 mph 87% 0.00 in 0 W/m2
00:35 72.7 °F 68.6 °F 29.95 in South 2 mph 4 mph 87% 0.00 in 0 W/m2
00:40 72.6 °F 68.5 °F 29.96 in WSW 3 mph 3 mph 87% 0.00 in 0 W/m2
00:45 72.5 °F 68.4 °F 29.96 in SW 3 mph 4 mph 87% 0.00 in 0 W/m2
00:50 72.3 °F 67.9 °F 29.96 in WNW 3 mph 3 mph 86% 0.00 in 0 W/m2
00:55 72.3 °F 68.2 °F 29.96 in SSW 3 mph 3 mph 87% 0.00 in 0 W/m2
01:00 72.2 °F 68.1 °F 29.96 in SW 3 mph 4 mph 87% 0.00 in 0 W/m2
01:05 72 °F 67.6 °F 29.96 in NW 3 mph 4 mph 86% 0.00 in 0 W/m2
01:10 71.9 °F 67.1 °F 29.96 in West 3 mph 3 mph 85% 0.00 in 0 W/m2
01:15 71.8 °F 67 °F 29.97 in West 3 mph 4 mph 85% 0.00 in 0 W/m2
01:20 71.6 °F 66.5 °F 29.97 in WSW 4 mph 5 mph 84% 0.00 in 0 W/m2
01:25 71.5 °F 66.4 °F 29.97 in SSW 4 mph 5 mph 84% 0.00 in 0 W/m2
01:30 71.5 °F 66.8 °F 29.97 in West 4 mph 6 mph 85% 0.00 in 0 W/m2
01:35 71.4 °F 66.7 °F 29.97 in West 4 mph 6 mph 85% 0.00 in 0 W/m2
01:40 71.3 °F 66.6 °F 29.97 in WSW 4 mph 4 mph 85% 0.00 in 0 W/m2
01:45 71.1 °F 66 °F 29.97 in West 4 mph 4 mph 84% 0.00 in 0 W/m2
01:50 71 °F 65.9 °F 29.97 in West 4 mph 6 mph 84% 0.00 in 0 W/m2
01:55 70.8 °F 65.7 °F 29.97 in WNW 4 mph 6 mph 84% 0.00 in 0 W/m2
02:00 70.7 °F 65.6 °F 29.97 in WNW 4 mph 4 mph 84% 0.00 in 0 W/m2
02:05 70.5 °F 65.4 °F 29.97 in WNW 3 mph 4 mph 84% 0.00 in 0 W/m2
02:10 70.4 °F 65.3 °F 29.97 in NNW 4 mph 4 mph 84% 0.00 in 0 W/m2
02:15 70.3 °F 65.6 °F 29.97 in WNW 3 mph 4 mph 85% 0.00 in 0 W/m2
02:20 70.2 °F 65.5 °F 29.97 in WNW 3 mph 5 mph 85% 0.00 in 0 W/m2
02:25 70.1 °F 65.4 °F 29.97 in SSW 4 mph 5 mph 85% 0.00 in 0 W/m2
02:30 69.9 °F 65.2 °F 29.98 in SW 4 mph 4 mph 85% 0.00 in 0 W/m2
02:35 69.8 °F 65.1 °F 29.97 in South 4 mph 4 mph 85% 0.00 in 0 W/m2
02:40 69.7 °F 64.6 °F 29.98 in SSW 3 mph 6 mph 84% 0.00 in 0 W/m2
02:45 69.5 °F 64.5 °F 29.98 in West 4 mph 7 mph 84% 0.00 in 0 W/m2
02:50 69.2 °F 64.2 °F 29.98 in NNE 4 mph 4 mph 84% 0.00 in 0 W/m2
02:55 69.1 °F 64.1 °F 29.98 in WNW 4 mph 4 mph 84% 0.00 in 0 W/m2
03:00 68.9 °F 63.9 °F 29.98 in West 4 mph 4 mph 84% 0.00 in 0 W/m2
03:05 68.8 °F 63.8 °F 29.98 in SSW 4 mph 4 mph 84% 0.00 in 0 W/m2
03:10 68.6 °F 63.2 °F 29.98 in WSW 4 mph 4 mph 83% 0.00 in 0 W/m2
03:15 68.4 °F 63.4 °F 29.99 in East 5 mph 5 mph 84% 0.00 in 0 W/m2
03:20 68.2 °F 63.2 °F 29.99 in WSW 5 mph 5 mph 84% 0.00 in 0 W/m2
03:25 68.1 °F 63.1 °F 29.99 in WNW 4 mph 5 mph 84% 0.00 in 0 W/m2
03:30 68 °F 63 °F 29.99 in SW 3 mph 3 mph 84% 0.00 in 0 W/m2
03:35 67.8 °F 62.8 °F 29.99 in WNW 4 mph 4 mph 84% 0.00 in 0 W/m2
03:40 67.7 °F 62.7 °F 29.99 in SE 4 mph 4 mph 84% 0.00 in 0 W/m2
03:45 67.6 °F 62.6 °F 30.00 in SW 4 mph 4 mph 84% 0.00 in 0 W/m2
03:50 67.5 °F 62.5 °F 30.00 in West 3 mph 3 mph 84% 0.00 in 0 W/m2
03:55 67.4 °F 62.4 °F 30.00 in NW 4 mph 4 mph 84% 0.00 in 0 W/m2
04:00 67.4 °F 62.4 °F 30.00 in SW 4 mph 4 mph 84% 0.00 in 0 W/m2
04:05 67.3 °F 62.3 °F 30.00 in WSW 3 mph 4 mph 84% 0.00 in 0 W/m2
04:10 67.2 °F 62.5 °F 30.01 in SW 3 mph 3 mph 85% 0.00 in 0 W/m2
04:15 67.2 °F 62.5 °F 30.01 in WNW 3 mph 3 mph 85% 0.00 in 0 W/m2
04:20 67.1 °F 62.4 °F 30.01 in NE 3 mph 3 mph 85% 0.00 in 0 W/m2
04:25 67 °F 62.3 °F 30.02 in West 3 mph 3 mph 85% 0.00 in 0 W/m2
04:30 67 °F 62.7 °F 30.02 in WSW 3 mph 3 mph 86% 0.00 in 0 W/m2
04:35 66.9 °F 62.6 °F 30.02 in West 3 mph 6 mph 86% 0.00 in 0 W/m2
04:40 67 °F 62.7 °F 30.02 in WNW 4 mph 5 mph 86% 0.00 in 0 W/m2
04:45 66.9 °F 62.6 °F 30.02 in NNW 4 mph 5 mph 86% 0.00 in 0 W/m2
04:50 66.9 °F 62.6 °F 30.02 in NW 4 mph 4 mph 86% 0.00 in 0 W/m2
04:55 66.8 °F 62.5 °F 30.02 in WNW 3 mph 4 mph 86% 0.00 in 0 W/m2
05:00 66.6 °F 61.9 °F 30.02 in SSW 3 mph 6 mph 85% 0.00 in 0 W/m2
05:05 66.6 °F 61.9 °F 30.02 in SW 4 mph 6 mph 85% 0.00 in 0 W/m2
05:10 66.5 °F 62.2 °F 30.02 in NNW 4 mph 4 mph 86% 0.00 in 0 W/m2
05:15 66.5 °F 62.2 °F 30.02 in West 4 mph 5 mph 86% 0.00 in 0 W/m2
05:20 66.5 °F 62.2 °F 30.02 in SW 4 mph 4 mph 86% 0.00 in 0 W/m2
05:25 66.4 °F 62.1 °F 30.02 in SSW 3 mph 4 mph 86% 0.00 in 0 W/m2
05:30 66.3 °F 62 °F 30.02 in West 3 mph 3 mph 86% 0.00 in 0 W/m2
05:35 66.3 °F 62 °F 30.03 in WNW 2 mph 4 mph 86% 0.00 in 0 W/m2
05:40 66.2 °F 61.9 °F 30.03 in WNW 3 mph 6 mph 86% 0.00 in 0 W/m2
05:45 66.2 °F 61.9 °F 30.03 in NW 3 mph 6 mph 86% 0.00 in 0 W/m2
05:50 66.2 °F 61.9 °F 30.04 in SW 3 mph 3 mph 86% 0.00 in 0 W/m2
05:55 66.2 °F 61.9 °F 30.04 in West 2 mph 5 mph 86% 0.00 in 0 W/m2
06:00 66.2 °F 62.2 °F 30.04 in WNW 2 mph 5 mph 87% 0.00 in 5 W/m2
06:05 66.2 °F 62.2 °F 30.05 in West 2 mph 5 mph 87% 0.00 in 5 W/m2
06:10 66.2 °F 62.2 °F 30.05 in SW 2 mph 4 mph 87% 0.00 in 5 W/m2
06:15 66.3 °F 62.3 °F 30.05 in West 3 mph 4 mph 87% 0.00 in 7 W/m2
06:20 66.2 °F 62.2 °F 30.05 in NW 3 mph 6 mph 87% 0.00 in 7 W/m2
06:25 66.3 °F 62.3 °F 30.05 in West 3 mph 6 mph 87% 0.00 in 12 W/m2
06:30 66.3 °F 62.3 °F 30.06 in NW 3 mph 3 mph 87% 0.00 in 16 W/m2
06:35 66.4 °F 62.4 °F 30.06 in WSW 3 mph 3 mph 87% 0.00 in 18 W/m2
06:40 66.4 °F 62.4 °F 30.06 in WNW 2 mph 2 mph 87% 0.00 in 16 W/m2
06:45 66.4 °F 62.4 °F 30.06 in WNW 3 mph 3 mph 87% 0.00 in 18 W/m2
06:50 66.5 °F 62.2 °F 30.07 in NNE 3 mph 3 mph 86% 0.00 in 23 W/m2
06:55 66.4 °F 62.1 °F 30.07 in WSW 3 mph 3 mph 86% 0.00 in 33 W/m2
07:00 66.5 °F 62.2 °F 30.07 in WSW 3 mph 5 mph 86% 0.00 in 42 W/m2
07:05 66.5 °F 62.2 °F 30.07 in West 3 mph 5 mph 86% 0.00 in 46 W/m2
07:10 66.5 °F 62.2 °F 30.07 in NNW 3 mph 3 mph 86% 0.00 in 51 W/m2
07:15 66.5 °F 62.2 °F 30.07 in WSW 3 mph 5 mph 86% 0.00 in 53 W/m2
07:20 66.6 °F 62.3 °F 30.07 in NW 3 mph 3 mph 86% 0.00 in 44 W/m2
07:25 66.6 °F 62.3 °F 30.07 in NW 3 mph 3 mph 86% 0.00 in 58 W/m2
07:30 66.7 °F 62.7 °F 30.07 in WNW 3 mph 3 mph 87% 0.00 in 79 W/m2
07:35 66.8 °F 62.8 °F 30.07 in WSW 3 mph 4 mph 87% 0.00 in 77 W/m2
07:40 66.8 °F 62.8 °F 30.07 in WNW 3 mph 4 mph 87% 0.00 in 111 W/m2
07:45 66.9 °F 62.6 °F 30.07 in NNW 4 mph 6 mph 86% 0.00 in 97 W/m2
07:50 67 °F 62.7 °F 30.07 in North 4 mph 6 mph 86% 0.00 in 79 W/m2
07:55 67 °F 62.7 °F 30.07 in WNW 5 mph 6 mph 86% 0.00 in 83 W/m2
08:00 67.1 °F 62.8 °F 30.07 in NW 4 mph 5 mph 86% 0.00 in 79 W/m2
08:05 67.1 °F 62.4 °F 30.07 in NNW 4 mph 5 mph 85% 0.00 in 105 W/m2
08:10 67.1 °F 62.4 °F 30.08 in NNW 3 mph 3 mph 85% 0.00 in 123 W/m2
08:15 67.2 °F 62.5 °F 30.08 in North 3 mph 4 mph 85% 0.00 in 114 W/m2
08:20 67.2 °F 62.5 °F 30.07 in WSW 3 mph 5 mph 85% 0.00 in 107 W/m2
08:25 67.3 °F 62.6 °F 30.07 in West 4 mph 5 mph 85% 0.00 in 104 W/m2
08:30 67.3 °F 62.6 °F 30.07 in NNW 4 mph 10 mph 85% 0.00 in 163 W/m2
08:35 67.4 °F 62.7 °F 30.07 in NW 3 mph 10 mph 85% 0.00 in 186 W/m2
08:40 67.6 °F 62.9 °F 30.07 in North 3 mph 4 mph 85% 0.00 in 431 W/m2
08:45 67.7 °F 63 °F 30.08 in NW 3 mph 4 mph 85% 0.00 in 186 W/m2
08:50 67.7 °F 63 °F 30.08 in NNE 4 mph 4 mph 85% 0.00 in 272 W/m2
08:55 67.9 °F 63.2 °F 30.08 in WSW 3 mph 4 mph 85% 0.00 in 165 W/m2
09:00 68 °F 63 °F 30.08 in NNW 2 mph 3 mph 84% 0.00 in 248 W/m2
09:05 68.1 °F 63.1 °F 30.09 in SSE 2 mph 3 mph 84% 0.00 in 432 W/m2
09:10 68.3 °F 63.6 °F 30.09 in NW 2 mph 2 mph 85% 0.00 in 227 W/m2
09:15 68.3 °F 63.3 °F 30.09 in WSW 2 mph 4 mph 84% 0.00 in 178 W/m2
09:20 68.4 °F 63.4 °F 30.09 in West 2 mph 4 mph 84% 0.00 in 294 W/m2
09:25 68.5 °F 63.8 °F 30.09 in North 2 mph 4 mph 85% 0.00 in 603 W/m2
09:30 68.6 °F 63.6 °F 30.09 in NNW 2 mph 4 mph 84% 0.00 in 619 W/m2
09:35 68.8 °F 63.8 °F 30.09 in NNW 2 mph 4 mph 84% 0.00 in 506 W/m2
09:40 68.9 °F 63.9 °F 30.10 in NW 3 mph 3 mph 84% 0.00 in 434 W/m2
09:45 69.1 °F 64.1 °F 30.10 in WSW 2 mph 3 mph 84% 0.00 in 288 W/m2
09:50 69.3 °F 64.3 °F 30.10 in NNW 1 mph 2 mph 84% 0.00 in 262 W/m2
09:55 69.4 °F 64 °F 30.10 in NW 2 mph 2 mph 83% 0.00 in 283 W/m2
10:00 69.4 °F 63.7 °F 30.09 in WNW 2 mph 2 mph 82% 0.00 in 341 W/m2
10:05 69.5 °F 64.1 °F 30.09 in SE 2 mph 2 mph 83% 0.00 in 339 W/m2
10:10 69.6 °F 64.2 °F 30.09 in SSW 1 mph 2 mph 83% 0.00 in 443 W/m2
10:15 69.6 °F 64.2 °F 30.10 in SSW 1 mph 2 mph 83% 0.00 in 334 W/m2
10:20 69.7 °F 64.3 °F 30.10 in SW 1 mph 2 mph 83% 0.00 in 278 W/m2
10:25 69.7 °F 64.3 °F 30.10 in West 2 mph 4 mph 83% 0.00 in 272 W/m2
10:30 69.5 °F 64.1 °F 30.10 in NW 2 mph 2 mph 83% 0.00 in 288 W/m2
10:35 69.6 °F 64.2 °F 30.11 in SW 2 mph 3 mph 83% 0.00 in 334 W/m2
10:40 69.6 °F 64.2 °F 30.11 in SW 2 mph 2 mph 83% 0.00 in 387 W/m2
10:45 69.6 °F 64.2 °F 30.11 in South 2 mph 2 mph 83% 0.00 in 394 W/m2
10:50 69.7 °F 64.3 °F 30.11 in SSE 2 mph 2 mph 83% 0.00 in 327 W/m2
10:55 69.7 °F 64.3 °F 30.11 in SSE 2 mph 2 mph 83% 0.00 in 320 W/m2
11:00 69.7 °F 64.3 °F 30.11 in SSW 2 mph 2 mph 83% 0.00 in 306 W/m2
11:05 69.7 °F 64.3 °F 30.12 in SW 2 mph 2 mph 83% 0.00 in 287 W/m2
11:10 69.7 °F 64.3 °F 30.12 in NNW 2 mph 2 mph 83% 0.00 in 260 W/m2
11:15 69.7 °F 64.3 °F 30.12 in SSW 2 mph 3 mph 83% 0.00 in 232 W/m2
11:20 69.7 °F 64.3 °F 30.12 in West 2 mph 2 mph 83% 0.00 in 251 W/m2
11:25 69.6 °F 64.2 °F 30.12 in South 2 mph 2 mph 83% 0.00 in 262 W/m2
11:30 69.7 °F 64.3 °F 30.12 in South 2 mph 2 mph 83% 0.00 in 264 W/m2
11:35 69.7 °F 64.3 °F 30.11 in East 1 mph 2 mph 83% 0.00 in 265 W/m2
11:40 69.6 °F 64.2 °F 30.12 in SSE 1 mph 1 mph 83% 0.00 in 320 W/m2
11:45 69.8 °F 64.7 °F 30.12 in SE 1 mph 3 mph 84% 0.00 in 826 W/m2
11:50 69.9 °F 64.8 °F 30.12 in South 1 mph 3 mph 84% 0.00 in 930 W/m2
11:55 70.1 °F 64.7 °F 30.12 in South 2 mph 3 mph 83% 0.00 in 1041 W/m2
12:00 70.4 °F 65 °F 30.12 in South 2 mph 2 mph 83% 0.00 in 374 W/m2
12:05 70.5 °F 64.7 °F 30.12 in WSW 1 mph 2 mph 82% 0.00 in 315 W/m2
12:10 70.7 °F 65.3 °F 30.12 in SSE 1 mph 2 mph 83% 0.00 in 896 W/m2
12:15 70.8 °F 65 °F 30.12 in SSE 2 mph 2 mph 82% 0.00 in 844 W/m2
12:20 71.1 °F 65.7 °F 30.13 in South 2 mph 2 mph 83% 0.00 in 833 W/m2
12:25 71.4 °F 65.6 °F 30.12 in SSW 2 mph 4 mph 82% 0.00 in 835 W/m2
12:30 71.6 °F 65.8 °F 30.12 in South 2 mph 3 mph 82% 0.00 in 840 W/m2
12:35 71.8 °F 65.3 °F 30.12 in SSW 2 mph 3 mph 80% 0.00 in 872 W/m2
12:40 71.5 °F 65.7 °F 30.13 in SSW 3 mph 3 mph 82% 0.00 in 833 W/m2
12:45 71.3 °F 65.5 °F 30.13 in SW 3 mph 3 mph 82% 0.00 in 868 W/m2
12:50 71.3 °F 65.5 °F 30.13 in SSW 3 mph 3 mph 82% 0.00 in 863 W/m2
12:55 71.4 °F 65.6 °F 30.13 in SSW 2 mph 3 mph 82% 0.00 in 854 W/m2
13:00 71.4 °F 65.3 °F 30.12 in SW 3 mph 4 mph 81% 0.00 in 856 W/m2
13:05 71.4 °F 65.6 °F 30.13 in SW 3 mph 4 mph 82% 0.00 in 856 W/m2
13:10 71.5 °F 65.7 °F 30.13 in SSW 3 mph 5 mph 82% 0.00 in 860 W/m2
13:15 71.3 °F 65.5 °F 30.13 in WSW 3 mph 5 mph 82% 0.00 in 860 W/m2
13:20 71.5 °F 65.7 °F 30.13 in WSW 3 mph 6 mph 82% 0.00 in 861 W/m2
13:25 71.6 °F 65.8 °F 30.13 in SSW 3 mph 6 mph 82% 0.00 in 863 W/m2
13:30 71.8 °F 66 °F 30.13 in WSW 3 mph 4 mph 82% 0.00 in 868 W/m2
13:35 71.9 °F 65.8 °F 30.13 in SW 3 mph 4 mph 81% 0.00 in 872 W/m2
13:40 71.9 °F 65.8 °F 30.13 in SSW 3 mph 5 mph 81% 0.00 in 881 W/m2
13:45 72.2 °F 66 °F 30.13 in South 3 mph 5 mph 81% 0.00 in 904 W/m2
13:50 72.5 °F 66.3 °F 30.13 in NW 3 mph 3 mph 81% 0.00 in 805 W/m2
13:55 72.9 °F 66.4 °F 30.13 in SE 2 mph 3 mph 80% 0.00 in 946 W/m2
14:00 73.1 °F 66.6 °F 30.13 in South 2 mph 4 mph 80% 0.00 in 940 W/m2
14:05 73.3 °F 66 °F 30.12 in SSE 3 mph 4 mph 78% 0.00 in 953 W/m2
14:10 73.3 °F 66.4 °F 30.13 in WSW 2 mph 3 mph 79% 0.00 in 650 W/m2
14:15 73.6 °F 66.7 °F 30.12 in SE 3 mph 4 mph 79% 0.00 in 895 W/m2
14:20 73.6 °F 66.7 °F 30.12 in SW 3 mph 3 mph 79% 0.00 in 582 W/m2
14:25 73.8 °F 66.9 °F 30.12 in South 2 mph 3 mph 79% 0.00 in 907 W/m2
14:30 73.7 °F 66.8 °F 30.11 in SSW 2 mph 3 mph 79% 0.00 in 492 W/m2
14:35 73.6 °F 66.3 °F 30.12 in SSW 2 mph 3 mph 78% 0.00 in 394 W/m2
14:40 73.7 °F 66.8 °F 30.12 in NNE 1 mph 1 mph 79% 0.00 in 410 W/m2
14:45 74 °F 67.1 °F 30.12 in NW 2 mph 2 mph 79% 0.00 in 471 W/m2
14:50 74.6 °F 67.3 °F 30.12 in NE 2 mph 3 mph 78% 0.00 in 1032 W/m2
14:55 74.4 °F 67.5 °F 30.12 in SE 2 mph 3 mph 79% 0.00 in 638 W/m2
15:00 74.4 °F 67.1 °F 30.12 in NE 2 mph 2 mph 78% 0.00 in 543 W/m2
15:05 74.3 °F 67 °F 30.12 in North 2 mph 2 mph 78% 0.00 in 599 W/m2
15:10 74.6 °F 66.9 °F 30.12 in NW 3 mph 3 mph 77% 0.00 in 527 W/m2
15:15 74.7 °F 67.8 °F 30.12 in NE 2 mph 3 mph 79% 0.00 in 701 W/m2
15:20 75.1 °F 67.8 °F 30.12 in SW 1 mph 1 mph 78% 0.00 in 701 W/m2
15:25 75.4 °F 67.3 °F 30.12 in North 1 mph 2 mph 76% 0.00 in 763 W/m2
15:30 75.2 °F 67.1 °F 30.12 in WSW 2 mph 3 mph 76% 0.00 in 675 W/m2
15:35 75.1 °F 67 °F 30.12 in NNW 3 mph 4 mph 76% 0.00 in 775 W/m2
15:40 75.4 °F 67.3 °F 30.12 in ESE 3 mph 3 mph 76% 0.00 in 951 W/m2
15:45 75.2 °F 66.7 °F 30.11 in SSE 3 mph 3 mph 75% 0.00 in 476 W/m2
15:50 74.9 °F 66.4 °F 30.11 in North 3 mph 3 mph 75% 0.00 in 448 W/m2
15:55 74.9 °F 66.8 °F 30.11 in NE 2 mph 3 mph 76% 0.00 in 512 W/m2
16:00 74.7 °F 66.6 °F 30.11 in NE 2 mph 2 mph 76% 0.00 in 512 W/m2
16:05 74.3 °F 66.6 °F 30.11 in West 3 mph 3 mph 77% 0.00 in 504 W/m2
16:10 74.4 °F 67.1 °F 30.11 in NNE 3 mph 3 mph 78% 0.00 in 840 W/m2
16:15 74.6 °F 66.5 °F 30.11 in NNW 2 mph 3 mph 76% 0.00 in 773 W/m2
16:20 74.7 °F 67.4 °F 30.11 in WSW 2 mph 2 mph 78% 0.00 in 652 W/m2
16:25 74.5 °F 67.2 °F 30.10 in WNW 2 mph 2 mph 78% 0.00 in 380 W/m2
16:30 74.5 °F 67.2 °F 30.11 in NE 3 mph 5 mph 78% 0.00 in 366 W/m2
16:35 74.5 °F 67.2 °F 30.11 in North 2 mph 5 mph 78% 0.00 in 408 W/m2
16:40 74.5 °F 67.2 °F 30.10 in NNE 2 mph 2 mph 78% 0.00 in 577 W/m2
16:45 74.7 °F 67 °F 30.11 in North 2 mph 2 mph 77% 0.00 in 260 W/m2
16:50 74.9 °F 67.2 °F 30.11 in North 2 mph 2 mph 77% 0.00 in 239 W/m2
16:55 74.9 °F 67.2 °F 30.11 in ENE 2 mph 2 mph 77% 0.00 in 281 W/m2
17:00 74.8 °F 66.7 °F 30.10 in NE 2 mph 2 mph 76% 0.00 in 353 W/m2
17:05 74.6 °F 66.5 °F 30.10 in East 2 mph 2 mph 76% 0.00 in 225 W/m2
17:10 74.4 °F 66.7 °F 30.10 in ENE 2 mph 2 mph 77% 0.00 in 253 W/m2
17:15 74.1 °F 66.4 °F 30.10 in North 2 mph 2 mph 77% 0.00 in 287 W/m2
17:20 73.9 °F 66.2 °F 30.10 in NE 2 mph 2 mph 77% 0.00 in 186 W/m2
17:25 73.7 °F 66.4 °F 30.10 in NE 2 mph 2 mph 78% 0.00 in 162 W/m2
17:30 73.6 °F 66.3 °F 30.10 in NNE 1 mph 1 mph 78% 0.00 in 200 W/m2
17:35 73.6 °F 66.7 °F 30.10 in NE 1 mph 2 mph 79% 0.00 in 181 W/m2
17:40 73.6 °F 66.7 °F 30.09 in NE 1 mph 1 mph 79% 0.00 in 211 W/m2
17:45 73.5 °F 66.6 °F 30.09 in NNW 2 mph 3 mph 79% 0.00 in 116 W/m2
17:50 73.3 °F 66.4 °F 30.09 in ESE 2 mph 2 mph 79% 0.00 in 165 W/m2
17:55 73.3 °F 66.4 °F 30.09 in ENE 2 mph 2 mph 79% 0.00 in 253 W/m2
18:00 73.1 °F 66.2 °F 30.09 in East 2 mph 2 mph 79% 0.00 in 185 W/m2
18:05 73.1 °F 66.2 °F 30.09 in West 2 mph 2 mph 79% 0.00 in 176 W/m2
18:10 73.3 °F 66.8 °F 30.09 in ENE 1 mph 2 mph 80% 0.00 in 204 W/m2
18:15 73.4 °F 66.9 °F 30.09 in NE 1 mph 2 mph 80% 0.00 in 188 W/m2
18:20 73.6 °F 67 °F 30.09 in ENE 1 mph 1 mph 80% 0.00 in 155 W/m2
18:25 73.6 °F 67 °F 30.09 in NE 1 mph 1 mph 80% 0.00 in 148 W/m2
18:30 73.7 °F 67.1 °F 30.09 in NNE 1 mph 1 mph 80% 0.00 in 176 W/m2
18:35 73.8 °F 67.2 °F 30.08 in ENE 1 mph 1 mph 80% 0.00 in 204 W/m2
18:40 73.9 °F 67 °F 30.08 in WNW 1 mph 1 mph 79% 0.00 in 285 W/m2
18:45 74 °F 67.4 °F 30.08 in NE 1 mph 2 mph 80% 0.00 in 214 W/m2
18:50 74.2 °F 67.6 °F 30.08 in ENE 1 mph 4 mph 80% 0.00 in 114 W/m2
18:55 74.4 °F 67.8 °F 30.08 in NE 1 mph 4 mph 80% 0.00 in 72 W/m2
19:00 74.5 °F 67.9 °F 30.08 in NNE 1 mph 1 mph 80% 0.00 in 83 W/m2
19:05 74.6 °F 68.4 °F 30.08 in NNE 1 mph 1 mph 81% 0.00 in 214 W/m2
19:10 74.6 °F 68.4 °F 30.08 in NE 1 mph 1 mph 81% 0.00 in 81 W/m2
19:15 74.7 °F 68.1 °F 30.08 in East 1 mph 2 mph 80% 0.00 in 72 W/m2
19:20 74.6 °F 68 °F 30.08 in NE 1 mph 1 mph 80% 0.00 in 211 W/m2
19:25 74.8 °F 68.6 °F 30.07 in NE 1 mph 1 mph 81% 0.00 in 251 W/m2
19:30 74.8 °F 67.8 °F 30.07 in NE 1 mph 1 mph 79% 0.00 in 213 W/m2
19:35 74.9 °F 67.9 °F 30.07 in NNE 1 mph 1 mph 79% 0.00 in 91 W/m2
19:40 75.2 °F 68.2 °F 30.07 in ENE 1 mph 1 mph 79% 0.00 in 197 W/m2
19:45 75.3 °F 68.7 °F 30.07 in NE 1 mph 1 mph 80% 0.00 in 178 W/m2
19:50 75.4 °F 68.4 °F 30.08 in NE 1 mph 1 mph 79% 0.00 in 148 W/m2
19:55 75.4 °F 68.1 °F 30.08 in NNE 1 mph 1 mph 78% 0.00 in 107 W/m2
20:00 75.4 °F 68.4 °F 30.08 in Calm   1 mph 79% 0.00 in 49 W/m2
20:05 75.5 °F 68.5 °F 30.08 in ENE 1 mph 1 mph 79% 0.00 in 39 W/m2
20:10 75.5 °F 68.2 °F 30.08 in ENE 1 mph 1 mph 78% 0.00 in 33 W/m2
20:15 75.4 °F 68.1 °F 30.08 in East 1 mph 1 mph 78% 0.00 in 39 W/m2
20:20 75.3 °F 68 °F 30.08 in Calm     78% 0.00 in 40 W/m2
20:25 75.4 °F 68.4 °F 30.08 in Calm     79% 0.00 in 39 W/m2
20:30 75.3 °F 68.3 °F 30.07 in ESE 1 mph 1 mph 79% 0.00 in 32 W/m2
20:35 75.3 °F 68.3 °F 30.08 in North 1 mph 1 mph 79% 0.00 in 40 W/m2
20:40 75.3 °F 68.3 °F 30.08 in ENE 1 mph 1 mph 79% 0.00 in 47 W/m2
20:45 75.2 °F 67.9 °F 30.08 in ENE 1 mph 1 mph 78% 0.00 in 32 W/m2
20:50 75.1 °F 67.8 °F 30.08 in ESE 1 mph 1 mph 78% 0.00 in 21 W/m2
20:55 75.1 °F 67.8 °F 30.08 in SE 1 mph 1 mph 78% 0.00 in 18 W/m2
21:00 75.1 °F 68.1 °F 30.08 in SE 1 mph 1 mph 79% 0.00 in 18 W/m2
21:05 75.2 °F 69 °F 30.08 in SE 1 mph 2 mph 81% 0.00 in 16 W/m2
21:10 75.2 °F 69.3 °F 30.08 in ENE 1 mph 1 mph 82% 0.00 in 14 W/m2
21:15 75.3 °F 69.4 °F 30.08 in ESE 1 mph 1 mph 82% 0.00 in 9 W/m2
21:20 75.3 °F 69.8 °F 30.08 in NE 1 mph 1 mph 83% 0.00 in 5 W/m2
21:25 75.4 °F 70.6 °F 30.09 in SE 1 mph 1 mph 85% 0.00 in 0 W/m2
21:30 75.5 °F 70.7 °F 30.09 in ESE 1 mph 1 mph 85% 0.00 in 0 W/m2
21:35 75.5 °F 70.7 °F 30.09 in SE 1 mph 1 mph 85% 0.00 in 0 W/m2
21:40 75.4 °F 70.6 °F 30.09 in SE 1 mph 1 mph 85% 0.00 in 0 W/m2
21:45 75.4 °F 70.6 °F 30.09 in ESE 1 mph 1 mph 85% 0.00 in 0 W/m2
21:50 75.4 °F 70.6 °F 30.09 in ESE 1 mph 1 mph 85% 0.00 in 0 W/m2
21:55 75.4 °F 70.6 °F 30.10 in East 1 mph 1 mph 85% 0.00 in 0 W/m2
22:00 75.3 °F 70.5 °F 30.10 in SE 1 mph 2 mph 85% 0.00 in 0 W/m2
22:05 75.3 °F 70.8 °F 30.09 in ESE 1 mph 2 mph 86% 0.00 in 0 W/m2
22:10 75.3 °F 70.8 °F 30.09 in ESE 1 mph 1 mph 86% 0.00 in 0 W/m2
22:15 75.2 °F 70.7 °F 30.09 in SSE 1 mph 1 mph 86% 0.00 in 0 W/m2
22:20 75.1 °F 70.6 °F 30.09 in East 1 mph 1 mph 86% 0.00 in 0 W/m2
22:25 74.9 °F 70.4 °F 30.09 in NE 1 mph 1 mph 86% 0.00 in 0 W/m2
22:30 74.8 °F 70 °F 30.09 in ENE 2 mph 2 mph 85% 0.00 in 0 W/m2
22:35 74.8 °F 70 °F 30.10 in SE 2 mph 2 mph 85% 0.00 in 0 W/m2
22:40 74.7 °F 70.2 °F 30.10 in SE 2 mph 2 mph 86% 0.00 in 0 W/m2
22:45 74.6 °F 70.1 °F 30.10 in SE 1 mph 2 mph 86% 0.00 in 0 W/m2
22:50 74.5 °F 70 °F 30.10 in East 1 mph 1 mph 86% 0.00 in 0 W/m2
22:55 74.3 °F 69.8 °F 30.10 in SE 1 mph 1 mph 86% 0.00 in 0 W/m2
23:00 74.2 °F 69.7 °F 30.11 in ESE 1 mph 1 mph 86% 0.00 in 0 W/m2
23:05 74.1 °F 69.6 °F 30.11 in ESE 1 mph 1 mph 86% 0.00 in 0 W/m2
23:10 74 °F 69.5 °F 30.10 in ESE 1 mph 2 mph 86% 0.00 in 0 W/m2
23:15 73.8 °F 69.3 °F 30.10 in East 1 mph 2 mph 86% 0.00 in 0 W/m2
23:20 73.7 °F 69.2 °F 30.10 in ESE 1 mph 1 mph 86% 0.00 in 0 W/m2
23:25 73.6 °F 69.2 °F 30.10 in SE 1 mph 1 mph 86% 0.00 in 0 W/m2
23:30 73.5 °F 69.1 °F 30.10 in ESE 1 mph 1 mph 86% 0.00 in 0 W/m2
23:35 73.4 °F 69.3 °F 30.10 in ESE 1 mph 1 mph 87% 0.00 in 0 W/m2
23:40 73.2 °F 69.1 °F 30.11 in ESE 1 mph 2 mph 87% 0.00 in 0 W/m2
23:45 73.1 °F 69 °F 30.11 in ESE 1 mph 2 mph 87% 0.00 in 0 W/m2
23:50 73 °F 68.9 °F 30.10 in ENE 1 mph 1 mph 87% 0.00 in 0 W/m2
23:55 72.8 °F 68.7 °F 30.11 in SE 1 mph 1 mph 87% 0.00 in 0 W/m2
Sand Point, Michigan, USA
Compliments of Weather Underground - 2 mb